Time;durP1;ratioP1;P1;durP2;ratioP2;P2;SDS_P1;SDS_P2;PMS_P1;PMS_P2;Temp;Humidity;BMP_temperature;BMP_pressure;BME280_temperature;BME280_humidity;BME280_pressure;Samples;Min_cycle;Max_cycle;Signal;HPM_P1;HPM_P2
2022/05/15 00:01:54;;;;;;;12.05;3.20;;;;;;;11.59;71.00;101382.00;5010178;28;20139;-50
2022/05/15 00:04:21;;;;;;;10.48;3.58;;;;;;;11.58;70.90;101369.75;5008338;28;20507;-51
2022/05/15 00:06:48;;;;;;;9.13;3.38;;;;;;;11.57;71.04;101381.22;5011730;28;20078;-51
2022/05/15 00:09:15;;;;;;;13.52;4.07;;;;;;;11.53;71.70;101373.56;5012927;28;20064;-50
2022/05/15 00:11:43;;;;;;;9.98;3.30;;;;;;;11.47;71.92;101379.97;5017300;28;20395;-54
2022/05/15 00:14:16;;;;;;;11.13;3.88;;;;;;;11.40;71.96;101375.94;5015544;28;20059;-55
2022/05/15 00:16:43;;;;;;;17.23;4.95;;;;;;;11.32;72.94;101381.59;5016924;28;20050;-52
2022/05/15 00:19:10;;;;;;;11.57;3.40;;;;;;;11.26;72.87;101376.63;5015497;28;20050;-54
2022/05/15 00:21:37;;;;;;;9.18;3.67;;;;;;;11.21;72.84;101390.94;5006941;28;20056;-55
2022/05/15 00:24:05;;;;;;;14.70;4.07;;;;;;;11.15;73.11;101379.78;5006920;28;20449;-52
2022/05/15 00:26:33;;;;;;;10.98;3.72;;;;;;;11.10;73.35;101389.72;5014162;28;20098;-54
2022/05/15 00:29:00;;;;;;;11.35;3.60;;;;;;;11.07;73.42;101381.09;5010016;28;20052;-53
2022/05/15 00:31:27;;;;;;;9.40;3.88;;;;;;;11.03;74.13;101387.44;5012240;28;20054;-53
2022/05/15 00:33:54;;;;;;;11.27;3.92;;;;;;;10.98;74.23;101387.66;5008183;28;20065;-53
2022/05/15 00:36:21;;;;;;;9.30;3.88;;;;;;;10.95;74.50;101389.63;5017461;28;20057;-54
2022/05/15 00:38:49;;;;;;;11.82;3.45;;;;;;;10.90;74.50;101379.31;5011441;28;20130;-49
2022/05/15 00:41:16;;;;;;;12.60;4.45;;;;;;;10.85;74.81;101386.53;5016775;28;20071;-51
2022/05/15 00:43:48;;;;;;;15.63;4.60;;;;;;;10.82;75.04;101384.06;5009617;28;20545;-54
2022/05/15 00:46:22;;;;;;;10.65;4.18;;;;;;;10.77;75.00;101386.94;5018342;28;20502;-53
2022/05/15 00:48:51;;;;;;;7.55;3.35;;;;;;;10.76;75.14;101389.63;5010452;28;20056;-47
2022/05/15 00:51:23;;;;;;;12.13;4.10;;;;;;;10.73;75.57;101388.00;5018675;28;20077;-48
2022/05/15 00:53:52;;;;;;;11.00;3.65;;;;;;;10.69;75.67;101389.06;5006754;28;20073;-51
2022/05/15 00:56:22;;;;;;;11.27;4.35;;;;;;;10.65;75.90;101385.72;5006729;28;20068;-52
2022/05/15 00:58:53;;;;;;;15.10;4.53;;;;;;;10.61;76.07;101384.16;5009071;28;21136;-46
2022/05/15 01:01:20;;;;;;;10.32;3.78;;;;;;;10.61;76.19;101380.66;5003397;28;20203;-54
2022/05/15 01:03:47;;;;;;;9.30;3.85;;;;;;;10.59;76.08;101383.38;5007341;28;20756;-48
2022/05/15 01:06:15;;;;;;;12.00;4.07;;;;;;;10.58;75.82;101384.31;5003929;28;20057;-49
2022/05/15 01:08:42;;;;;;;20.02;4.20;;;;;;;10.59;76.27;101391.28;5009171;28;20151;-51
2022/05/15 01:11:15;;;;;;;15.43;4.90;;;;;;;10.59;76.44;101390.44;5015180;28;20049;-49
2022/05/15 01:13:42;;;;;;;10.98;3.67;;;;;;;10.57;76.19;101392.25;5001856;28;20058;-52
2022/05/15 01:16:11;;;;;;;12.77;4.93;;;;;;;10.56;76.64;101386.16;5001372;28;20048;-48
2022/05/15 01:18:39;;;;;;;11.10;4.38;;;;;;;10.54;76.75;101388.00;5006536;28;20054;-52
2022/05/15 01:21:31;;;;;;;9.95;4.70;;;;;;;10.50;76.65;101389.06;5007271;28;20479;-47
2022/05/15 01:24:00;;;;;;;13.98;4.30;;;;;;;10.47;77.05;101393.63;5002614;28;20085;-52
2022/05/15 01:26:28;;;;;;;11.57;3.92;;;;;;;10.42;77.38;101396.47;5005789;28;20507;-52
2022/05/15 01:28:55;;;;;;;12.40;4.18;;;;;;;10.38;77.89;101395.75;5012340;28;20064;-54
2022/05/15 01:31:23;;;;;;;10.15;4.32;;;;;;;10.37;78.40;101391.41;5005519;28;20065;-47
2022/05/15 01:33:51;;;;;;;14.60;4.47;;;;;;;10.33;78.22;101392.47;5003790;28;20058;-45
2022/05/15 01:36:21;;;;;;;13.57;5.72;;;;;;;10.27;78.36;101390.13;5017346;28;20061;-47
2022/05/15 01:38:48;;;;;;;11.63;4.30;;;;;;;10.25;78.91;101391.13;5007368;28;20058;-48
2022/05/15 01:41:15;;;;;;;9.63;4.30;;;;;;;10.22;79.24;101392.09;5011609;28;20068;-52
2022/05/15 01:43:52;;;;;;;11.15;5.03;;;;;;;10.19;79.01;101389.59;5006333;28;20066;-53
2022/05/15 01:46:22;;;;;;;13.02;4.10;;;;;;;10.15;79.69;101393.28;5012740;28;20057;-50
2022/05/15 01:48:51;;;;;;;11.20;4.70;;;;;;;10.13;80.33;101395.09;5013318;28;20058;-53
2022/05/15 01:51:18;;;;;;;12.13;4.47;;;;;;;10.12;80.05;101403.94;5014257;28;20391;-53
2022/05/15 01:53:45;;;;;;;14.07;5.50;;;;;;;10.09;80.34;101391.78;5004153;28;20050;-51
2022/05/15 01:56:12;;;;;;;10.45;4.07;;;;;;;10.08;80.43;101392.69;5005372;28;20141;-50
2022/05/15 01:58:40;;;;;;;11.32;4.45;;;;;;;10.06;80.82;101391.06;5009445;28;20092;-56
2022/05/15 02:01:08;;;;;;;12.07;4.72;;;;;;;10.03;80.47;101394.66;5015283;28;20059;-49
2022/05/15 02:03:35;;;;;;;10.75;4.25;;;;;;;10.00;81.22;101393.97;5006443;28;20084;-55
2022/05/15 02:06:03;;;;;;;9.85;4.30;;;;;;;9.97;81.06;101397.59;5009786;28;20517;-54
2022/05/15 02:08:32;;;;;;;16.40;5.22;;;;;;;9.96;81.20;101392.41;5013920;28;20065;-53
2022/05/15 02:10:59;;;;;;;12.93;4.85;;;;;;;9.93;81.20;101393.38;5008813;28;20482;-51
2022/05/15 02:13:27;;;;;;;9.05;4.80;;;;;;;9.91;81.80;101395.22;5004488;28;20057;-53
2022/05/15 02:15:54;;;;;;;9.13;4.03;;;;;;;9.89;81.58;101394.44;5010318;28;20053;-49
2022/05/15 02:18:21;;;;;;;16.27;5.03;;;;;;;9.87;81.50;101402.41;5015260;28;20050;-53
2022/05/15 02:20:48;;;;;;;10.98;4.40;;;;;;;9.86;82.17;101394.56;5011948;28;20542;-48
2022/05/15 02:23:16;;;;;;;14.70;4.82;;;;;;;9.84;82.08;101399.03;5013046;28;20061;-49
2022/05/15 02:25:43;;;;;;;12.00;4.30;;;;;;;9.83;81.63;101399.97;5003082;28;20060;-55
2022/05/15 02:28:10;;;;;;;9.60;4.15;;;;;;;9.82;81.51;101398.25;5006271;28;20304;-52
2022/05/15 02:30:37;;;;;;;12.68;4.22;;;;;;;9.80;81.88;101392.19;5006081;28;21293;-51
2022/05/15 02:33:05;;;;;;;10.38;4.53;;;;;;;9.77;81.44;101398.47;5008237;28;20060;-48
2022/05/15 02:35:33;;;;;;;14.35;4.57;;;;;;;9.74;81.77;101400.38;5008186;28;20076;-52
2022/05/15 02:38:00;;;;;;;9.93;3.97;;;;;;;9.71;81.61;101398.72;5018723;28;20132;-53
2022/05/15 02:40:27;;;;;;;8.07;3.10;;;;;;;9.71;81.72;101405.75;5015191;28;20271;-49
2022/05/15 02:42:56;;;;;;;9.55;3.65;;;;;;;9.69;82.16;101399.72;5017486;28;20069;-49
2022/05/15 02:45:24;;;;;;;6.63;3.10;;;;;;;9.65;81.80;101396.34;5014193;28;20050;-55
2022/05/15 02:47:51;;;;;;;10.30;3.75;;;;;;;9.66;81.52;101397.19;5013818;28;20060;-49
2022/05/15 02:53:05;;;;;;;10.07;3.22;;;;;;;9.59;82.14;101400.09;5006255;28;20065;-52
2022/05/15 02:55:33;;;;;;;7.78;3.58;;;;;;;9.59;82.24;101405.38;5003759;28;20050;-57
2022/05/15 02:58:00;;;;;;;11.32;3.25;;;;;;;9.58;82.07;101403.63;5006445;28;20664;-49
2022/05/15 03:00:28;;;;;;;11.90;4.13;;;;;;;9.60;81.39;101401.81;5003288;28;20057;-53
2022/05/15 03:02:55;;;;;;;10.02;4.18;;;;;;;9.62;82.10;101405.22;5012215;28;20058;-51
2022/05/15 03:05:28;;;;;;;8.82;2.42;;;;;;;9.63;81.71;101404.28;5011611;28;20449;-54
2022/05/15 03:07:55;;;;;;;12.25;3.20;;;;;;;9.68;82.42;101403.22;5009577;28;20045;-48
2022/05/15 03:10:22;;;;;;;9.45;3.60;;;;;;;9.72;82.61;101404.81;5013490;28;20061;-55
2022/05/15 03:12:50;;;;;;;10.73;3.38;;;;;;;9.74;82.41;101409.09;5011290;28;20064;-52
2022/05/15 03:15:19;;;;;;;8.35;3.03;;;;;;;9.73;82.11;101403.91;5009380;28;20065;-49
2022/05/15 03:17:46;;;;;;;8.85;4.22;;;;;;;9.72;81.86;101408.28;5011434;28;20137;-49
2022/05/15 03:20:16;;;;;;;8.10;3.40;;;;;;;9.73;81.80;101409.19;5016230;28;20057;-59
2022/05/15 03:22:44;;;;;;;9.70;2.88;;;;;;;9.75;81.89;101413.44;5008257;28;20224;-47
2022/05/15 03:25:11;;;;;;;8.27;2.65;;;;;;;9.78;82.07;101417.72;5005272;28;20045;-54
2022/05/15 03:27:38;;;;;;;9.18;3.08;;;;;;;9.79;81.61;101416.78;5005317;28;20395;-52
2022/05/15 03:30:06;;;;;;;6.72;2.67;;;;;;;9.80;81.58;101419.34;5009729;28;20383;-54
2022/05/15 03:32:33;;;;;;;9.65;2.67;;;;;;;9.79;81.59;101420.28;5005862;28;20050;-54
2022/05/15 03:35:00;;;;;;;11.13;3.33;;;;;;;9.79;82.20;101417.66;4999620;28;20647;-49
2022/05/15 03:37:27;;;;;;;9.02;3.10;;;;;;;9.80;81.84;101421.13;5009955;28;20050;-54
2022/05/15 03:39:55;;;;;;;8.35;3.25;;;;;;;9.78;81.59;101420.34;5011330;28;20065;-48
2022/05/15 03:42:24;;;;;;;11.32;2.92;;;;;;;9.80;81.67;101423.75;5016449;28;20060;-54
2022/05/15 03:44:52;;;;;;;5.95;2.40;;;;;;;9.82;81.63;101425.41;5012832;28;20072;-55
2022/05/15 03:47:20;;;;;;;12.38;3.47;;;;;;;9.88;82.60;101429.53;5014845;28;20056;-51
2022/05/15 03:49:47;;;;;;;8.27;3.17;;;;;;;9.92;82.40;101428.50;5010261;28;20057;-48
2022/05/15 03:52:14;;;;;;;13.02;4.28;;;;;;;9.95;82.18;101428.38;5015028;28;20057;-53
2022/05/15 03:54:41;;;;;;;9.85;3.53;;;;;;;9.99;81.93;101426.44;5007435;28;20049;-48
2022/05/15 03:57:09;;;;;;;7.22;2.95;;;;;;;10.03;81.81;101431.50;5008129;28;20053;-50
2022/05/15 03:59:39;;;;;;;11.60;3.13;;;;;;;10.09;81.50;101435.66;5007536;28;20058;-51
2022/05/15 04:02:07;;;;;;;9.25;3.03;;;;;;;10.12;81.84;101435.50;5009107;28;20080;-51
2022/05/15 04:04:35;;;;;;;7.30;2.65;;;;;;;10.13;81.18;101438.09;5009032;28;20050;-53
2022/05/15 04:07:03;;;;;;;9.13;3.53;;;;;;;10.18;80.70;101451.03;5015060;28;20056;-52
2022/05/15 04:09:31;;;;;;;7.97;3.08;;;;;;;10.21;81.09;101442.13;5015918;28;20079;-51
2022/05/15 04:11:58;;;;;;;9.95;3.58;;;;;;;10.22;80.93;101446.47;5008168;28;20484;-50
2022/05/15 04:14:25;;;;;;;10.73;2.33;;;;;;;10.25;81.20;101449.84;5012394;28;20171;-55
2022/05/15 04:16:52;;;;;;;10.55;3.10;;;;;;;10.28;80.69;101451.50;5014697;28;20053;-51
2022/05/15 04:19:19;;;;;;;9.35;3.08;;;;;;;10.32;80.56;101461.84;5013955;28;20057;-52
2022/05/15 04:21:46;;;;;;;10.63;3.10;;;;;;;10.37;80.42;101456.38;5010843;28;20499;-55
2022/05/15 04:24:15;;;;;;;7.82;3.22;;;;;;;10.42;80.81;101464.91;5011362;28;20049;-54
2022/05/15 04:26:43;;;;;;;9.23;3.33;;;;;;;10.49;80.74;101457.56;5011893;28;20049;-53
2022/05/15 04:29:10;;;;;;;9.63;3.10;;;;;;;10.54;80.23;101460.88;5009811;28;20057;-51
2022/05/15 04:31:37;;;;;;;11.27;3.55;;;;;;;10.61;79.77;101464.94;5010246;28;20053;-52
2022/05/15 04:34:05;;;;;;;7.70;2.65;;;;;;;10.67;79.97;101466.41;5008741;28;20058;-54
2022/05/15 04:36:33;;;;;;;8.27;2.92;;;;;;;10.72;80.05;101470.56;5014431;28;20061;-50
2022/05/15 04:39:03;;;;;;;10.18;3.20;;;;;;;10.78;79.68;101474.69;5010994;28;20070;-53
2022/05/15 04:41:30;;;;;;;6.65;2.95;;;;;;;10.84;78.96;101469.97;5011848;28;20058;-52
2022/05/15 04:43:58;;;;;;;8.98;2.92;;;;;;;10.89;78.96;101475.88;5010298;28;20053;-51
2022/05/15 04:46:29;;;;;;;7.82;2.78;;;;;;;10.99;78.73;101478.13;5009126;28;20394;-55
2022/05/15 04:48:57;;;;;;;12.07;2.78;;;;;;;11.03;78.44;101477.91;5011435;28;20095;-53
2022/05/15 04:51:24;;;;;;;9.05;3.00;;;;;;;11.11;78.43;101485.41;5009422;28;20073;-54
2022/05/15 04:53:52;;;;;;;9.95;2.70;;;;;;;11.19;78.13;101485.91;5007580;28;20064;-49
2022/05/15 04:56:19;;;;;;;8.43;2.40;;;;;;;11.26;77.74;101486.50;5011706;28;20054;-55
2022/05/15 04:58:47;;;;;;;5.28;2.50;;;;;;;11.34;77.26;101493.06;5007732;28;20521;-50
2022/05/15 05:01:14;;;;;;;9.18;2.45;;;;;;;11.43;76.98;101488.28;5007686;28;20053;-49
2022/05/15 05:03:42;;;;;;;9.48;2.50;;;;;;;11.47;76.92;101490.72;5006123;28;20069;-52
2022/05/15 05:06:09;;;;;;;6.68;2.40;;;;;;;11.55;76.55;101491.19;5012677;28;20080;-53
2022/05/15 05:08:36;;;;;;;12.00;3.80;;;;;;;11.60;76.38;101491.81;5007031;28;20065;-53
2022/05/15 05:11:03;;;;;;;7.43;2.00;;;;;;;11.66;75.26;101493.28;5016046;28;20061;-49
2022/05/15 05:13:31;;;;;;;9.38;2.53;;;;;;;11.75;75.50;101497.25;5009389;28;20053;-51
2022/05/15 05:15:58;;;;;;;8.90;2.08;;;;;;;11.81;74.91;101489.91;5009745;28;20929;-50
2022/05/15 05:18:25;;;;;;;8.32;1.90;;;;;;;11.83;74.10;101495.97;5008378;28;20041;-57
2022/05/15 05:20:52;;;;;;;7.30;2.22;;;;;;;11.86;74.10;101498.47;5009699;28;20081;-50
2022/05/15 05:23:19;;;;;;;11.25;2.42;;;;;;;11.95;73.89;101498.94;5015414;28;20550;-57
2022/05/15 05:25:46;;;;;;;4.22;1.63;;;;;;;12.04;73.42;101501.09;5007128;28;20419;-50
2022/05/15 05:28:15;;;;;;;6.00;2.05;;;;;;;12.11;73.77;101507.75;5007803;28;20518;-55
2022/05/15 05:30:43;;;;;;;6.35;2.25;;;;;;;12.16;73.17;101503.13;5009718;28;20140;-50
2022/05/15 05:33:10;;;;;;;12.63;2.67;;;;;;;12.26;72.75;101506.16;5009002;28;20054;-51
2022/05/15 05:35:38;;;;;;;8.80;2.75;;;;;;;12.29;72.20;101517.41;5008014;28;20168;-47
2022/05/15 05:38:05;;;;;;;5.50;1.75;;;;;;;12.37;71.89;101515.19;5008868;28;20057;-49
2022/05/15 05:40:32;;;;;;;7.38;2.00;;;;;;;12.41;71.75;101516.75;5006705;28;20054;-57
2022/05/15 05:43:00;;;;;;;8.15;2.38;;;;;;;12.50;71.92;101522.47;5007764;28;20061;-46
2022/05/15 05:45:27;;;;;;;7.47;1.92;;;;;;;12.60;71.47;101524.53;5011802;28;20104;-50
2022/05/15 05:47:55;;;;;;;7.55;1.75;;;;;;;12.70;71.03;101524.94;5012951;28;20557;-50
2022/05/15 05:50:24;;;;;;;6.80;2.00;;;;;;;12.74;70.99;101529.09;5004889;28;20155;-54
2022/05/15 05:52:51;;;;;;;6.78;1.80;;;;;;;12.76;70.49;101531.69;5010064;28;20053;-51
2022/05/15 05:55:19;;;;;;;6.35;1.73;;;;;;;12.82;71.07;101536.63;5008484;28;20061;-47
2022/05/15 05:57:46;;;;;;;7.35;2.78;;;;;;;12.88;70.36;101536.31;5006638;28;20072;-48
2022/05/15 06:00:18;;;;;;;7.55;2.53;;;;;;;12.98;70.60;101542.78;5005045;28;20049;-50
2022/05/15 06:02:45;;;;;;;5.55;2.38;;;;;;;13.13;70.41;101534.00;5006267;28;20053;-50
2022/05/15 06:05:13;;;;;;;8.13;2.00;;;;;;;13.32;69.71;101531.22;5005238;28;20042;-48
2022/05/15 06:07:40;;;;;;;6.68;2.38;;;;;;;13.37;68.21;101534.50;5005629;28;20068;-49
2022/05/15 06:10:10;;;;;;;7.00;2.20;;;;;;;13.43;68.78;101542.06;5003166;28;20057;-53
2022/05/15 06:12:40;;;;;;;7.18;2.28;;;;;;;13.51;68.06;101541.66;5005746;28;20070;-51
2022/05/15 06:15:09;;;;;;;7.18;2.40;;;;;;;13.56;67.94;101536.09;5005393;28;20041;-53
2022/05/15 06:17:36;;;;;;;9.15;2.50;;;;;;;13.67;68.02;101531.88;5000950;28;20503;-51
2022/05/15 06:20:05;;;;;;;4.55;1.65;;;;;;;13.77;67.59;101539.28;5005188;28;20050;-49
2022/05/15 06:22:33;;;;;;;7.00;1.80;;;;;;;13.73;66.49;101540.41;5009221;28;20064;-49
2022/05/15 06:25:00;;;;;;;8.10;2.13;;;;;;;13.69;66.35;101539.75;5005771;28;20045;-54
2022/05/15 06:27:27;;;;;;;11.05;2.55;;;;;;;13.68;66.37;101540.66;5009309;28;20511;-49
2022/05/15 06:30:00;;;;;;;8.98;2.08;;;;;;;13.73;65.67;101545.69;5003497;28;20061;-58
2022/05/15 06:32:27;;;;;;;7.28;1.98;;;;;;;13.90;65.75;101542.94;5020583;28;20050;-52
2022/05/15 06:34:54;;;;;;;11.75;2.38;;;;;;;14.02;64.86;101544.88;5006110;28;20062;-51
2022/05/15 06:37:21;;;;;;;6.80;1.90;;;;;;;13.99;64.43;101545.03;5007763;28;20050;-48
2022/05/15 06:39:48;;;;;;;8.85;2.45;;;;;;;14.04;64.84;101545.63;5005017;28;20053;-53
2022/05/15 06:42:15;;;;;;;5.15;1.60;;;;;;;14.25;65.08;101540.84;5007659;28;20495;-48
2022/05/15 06:44:42;;;;;;;6.57;1.90;;;;;;;14.38;64.23;101539.19;5009547;28;20118;-50
2022/05/15 06:47:09;;;;;;;8.00;1.85;;;;;;;14.50;63.97;101536.75;5005774;28;20065;-48
2022/05/15 06:49:37;;;;;;;7.00;1.60;;;;;;;14.62;63.13;101536.00;5007298;28;20053;-55
2022/05/15 06:52:04;;;;;;;6.70;2.17;;;;;;;14.73;62.79;101541.53;5007474;28;20058;-48
2022/05/15 06:54:31;;;;;;;4.13;1.80;;;;;;;14.79;62.42;101535.81;5008393;28;20506;-53
2022/05/15 06:59:44;;;;;;;;;;;;;;;14.92;61.40;101546.53;5014865;22;20115;-84
2022/05/15 07:02:12;;;;;;;6.80;1.92;;;;;;;14.80;61.30;101542.81;5018762;28;19944;-83
2022/05/15 07:04:39;;;;;;;8.32;2.33;;;;;;;14.82;61.25;101543.59;5008388;28;20111;-84
2022/05/15 07:07:06;;;;;;;7.68;2.10;;;;;;;14.94;61.29;101541.97;4993643;28;20077;-84
2022/05/15 07:09:34;;;;;;;7.93;1.88;;;;;;;15.06;60.38;101550.97;5003354;28;20160;-85
2022/05/15 07:12:03;;;;;;;7.07;2.50;;;;;;;15.16;59.67;101541.47;5018053;28;20057;-85
2022/05/15 07:14:30;;;;;;;5.45;1.70;;;;;;;15.30;59.77;101545.88;5020272;28;20042;-87
2022/05/15 07:16:57;;;;;;;6.72;2.15;;;;;;;15.44;59.37;101543.19;5000221;28;20114;-84
2022/05/15 07:19:24;;;;;;;6.60;1.40;;;;;;;15.58;58.77;101553.78;5001057;28;20049;-85
2022/05/15 07:21:52;;;;;;;11.00;2.10;;;;;;;15.61;58.21;101547.41;5003534;28;20510;-85
2022/05/15 07:24:20;;;;;;;7.22;1.70;;;;;;;15.68;56.98;101554.06;5014328;28;20671;-86
2022/05/15 07:26:49;;;;;;;4.95;1.67;;;;;;;15.61;56.44;101555.38;5021078;28;20050;-84
2022/05/15 07:29:17;;;;;;;6.30;1.52;;;;;;;15.42;56.66;101553.06;5022441;28;20042;-84
2022/05/15 07:31:44;;;;;;;8.23;1.35;;;;;;;15.43;56.69;101552.09;5021720;28;20069;-84
2022/05/15 07:34:11;;;;;;;6.10;2.15;;;;;;;15.62;56.33;101547.31;4999939;28;20054;-83
2022/05/15 07:36:39;;;;;;;2.97;1.30;;;;;;;15.76;55.48;101553.53;5021856;28;20038;-83
2022/05/15 07:39:06;;;;;;;5.85;1.63;;;;;;;15.89;55.04;101549.13;4999906;28;20060;-84
2022/05/15 07:41:33;;;;;;;3.70;1.42;;;;;;;16.00;54.48;101545.78;5016401;28;20145;-85
2022/05/15 07:44:00;;;;;;;3.72;1.33;;;;;;;16.08;54.61;101549.63;5018518;28;20045;-82
2022/05/15 07:46:27;;;;;;;8.93;2.13;;;;;;;16.08;53.33;101554.94;5020218;28;20205;-85
2022/05/15 07:48:55;;;;;;;11.38;2.72;;;;;;;16.09;53.12;101553.13;4999281;28;20064;-84
2022/05/15 07:51:22;;;;;;;8.07;1.60;;;;;;;15.99;53.19;101552.88;4996502;28;20054;-86
2022/05/15 07:53:50;;;;;;;3.80;1.48;;;;;;;16.17;53.30;101543.69;5030536;28;20046;-86
2022/05/15 07:56:17;;;;;;;6.68;2.03;;;;;;;16.34;52.70;101542.50;5019781;28;20042;-85
2022/05/15 07:58:44;;;;;;;6.47;1.98;;;;;;;16.48;52.54;101549.56;5018196;28;20057;-85
2022/05/15 08:01:11;;;;;;;5.50;1.48;;;;;;;16.60;52.43;101548.69;5017284;28;20217;-86
2022/05/15 08:03:43;;;;;;;5.90;1.60;;;;;;;16.78;52.32;101548.41;5016658;28;20798;-85
2022/05/15 08:09:07;;;;;;;2.70;1.30;;;;;;;16.89;51.07;101548.50;4985877;28;20056;-84
2022/05/15 08:11:36;;;;;;;3.92;1.42;;;;;;;17.00;50.34;101555.72;5008539;28;20652;-86
2022/05/15 08:14:05;;;;;;;7.60;2.00;;;;;;;16.81;49.90;101551.69;5013509;28;20054;-84
2022/05/15 08:16:35;;;;;;;7.10;2.05;;;;;;;16.68;50.51;101556.13;4998721;28;20196;-85
2022/05/15 08:24:40;;;;;;;5.32;1.65;;;;;;;17.00;48.44;101551.25;5012604;28;20426;-85
2022/05/15 08:27:09;;;;;;;4.65;1.27;;;;;;;16.90;48.03;101547.53;5016454;28;20041;-86
2022/05/15 08:29:37;;;;;;;6.30;1.23;;;;;;;17.01;47.65;101544.94;5016591;28;20413;-84
2022/05/15 08:32:06;;;;;;;3.67;1.35;;;;;;;16.84;46.74;101542.63;4999648;28;20068;-84
2022/05/15 08:34:34;;;;;;;7.53;1.17;;;;;;;16.92;47.75;101545.59;5016954;28;20508;-83
2022/05/15 08:37:01;;;;;;;5.45;1.33;;;;;;;16.98;47.35;101545.19;5018206;28;20117;-84
2022/05/15 08:39:29;;;;;;;3.95;1.23;;;;;;;17.10;47.93;101544.28;5011860;28;20046;-85
2022/05/15 08:42:19;;;;;;;4.80;1.67;;;;;;;17.35;46.34;101539.88;5016074;28;20121;-85
2022/05/15 08:44:47;;;;;;;6.70;1.35;;;;;;;17.47;45.98;101538.97;4982876;28;20053;-84
2022/05/15 08:47:30;;;;;;;4.45;1.20;;;;;;;17.33;45.54;101541.78;5011924;28;20057;-85
2022/05/15 08:50:03;;;;;;;3.15;0.98;;;;;;;17.20;45.51;101529.38;5000341;28;20091;-84
2022/05/15 08:52:43;;;;;;;5.60;1.10;;;;;;;17.30;45.45;101540.22;5015585;28;20485;-84
2022/05/15 08:55:43;;;;;;;4.18;1.80;;;;;;;17.32;45.89;101532.09;5015867;28;20064;-86
2022/05/15 08:58:16;;;;;;;10.20;1.80;;;;;;;17.26;46.57;101544.06;5014520;28;20056;-85
2022/05/15 09:00:52;;;;;;;4.68;1.13;;;;;;;17.18;46.49;101541.94;4995645;28;20471;-85
2022/05/15 09:03:31;;;;;;;8.13;1.60;;;;;;;17.46;45.99;101540.78;5019222;28;20077;-84
2022/05/15 09:06:24;;;;;;;3.03;1.15;;;;;;;17.70;44.61;101539.94;5017532;28;20084;-85
2022/05/15 09:09:01;;;;;;;3.45;1.42;;;;;;;18.01;44.23;101541.16;5013236;28;20072;-86
2022/05/15 09:11:55;;;;;;;4.45;1.10;;;;;;;18.21;43.47;101543.19;5022591;28;20081;-86
2022/05/15 09:14:43;;;;;;;5.75;1.55;;;;;;;17.99;43.37;101536.94;5021642;28;20061;-83
2022/05/15 09:17:38;;;;;;;3.25;1.05;;;;;;;18.19;43.69;101542.47;5025759;28;20147;-84
2022/05/15 09:20:13;;;;;;;3.65;1.20;;;;;;;18.38;43.43;101536.56;5012083;28;20038;-84
2022/05/15 09:22:42;;;;;;;;;;;;;;;18.44;43.05;101532.56;5025190;28;20046;-85
2022/05/15 09:25:21;;;;;;;3.30;1.30;;;;;;;18.52;42.11;101532.81;5019980;28;19933;-85
2022/05/15 09:28:07;;;;;;;6.97;1.50;;;;;;;18.53;41.88;101531.00;4998739;28;20126;-84
2022/05/15 09:30:47;;;;;;;3.78;1.50;;;;;;;18.65;41.54;101527.38;5013527;28;20048;-86
2022/05/15 09:33:23;;;;;;;8.20;1.48;;;;;;;18.73;41.49;101532.97;5031556;28;20073;-82
2022/05/15 09:35:51;;;;;;;7.13;1.77;;;;;;;18.81;42.01;101527.03;5024180;28;20143;-84
2022/05/15 09:38:28;;;;;;;5.65;1.17;;;;;;;18.83;41.68;101525.97;5021299;28;20133;-83
2022/05/15 09:43:58;;;;;;;3.63;1.10;;;;;;;19.07;41.21;101519.63;5018991;28;20060;-85
2022/05/15 09:46:27;;;;;;;4.75;1.10;;;;;;;19.23;40.47;101520.94;5017473;28;20062;-85
2022/05/15 09:49:01;;;;;;;3.33;1.20;;;;;;;19.23;39.51;101518.25;4993390;28;20042;-83
2022/05/15 09:51:43;;;;;;;2.63;1.10;;;;;;;19.15;39.33;101511.84;5022184;28;20077;-85
2022/05/15 09:54:31;;;;;;;2.65;0.93;;;;;;;19.31;39.63;101509.59;5006221;28;20049;-84
2022/05/15 09:57:13;;;;;;;3.80;1.00;;;;;;;19.58;39.99;101514.50;5008929;28;20113;-84
2022/05/15 09:59:41;;;;;;;2.70;1.08;;;;;;;19.77;39.52;101504.97;4994717;28;20373;-85
2022/05/15 10:02:21;;;;;;;4.40;1.20;;;;;;;19.94;38.70;101507.09;5025630;28;20068;-84
2022/05/15 10:04:51;;;;;;;3.10;1.35;;;;;;;20.00;38.36;101501.25;4998960;28;20050;-85
2022/05/15 10:07:40;;;;;;;1.67;0.70;;;;;;;20.12;38.91;101518.91;5001408;28;20065;-85
2022/05/15 10:10:12;;;;;;;2.83;0.95;;;;;;;20.12;37.67;101507.34;5020033;28;20037;-83
2022/05/15 10:12:40;;;;;;;7.28;0.90;;;;;;;20.29;37.54;101508.59;5029683;28;20094;-83
2022/05/15 10:15:08;;;;;;;3.58;1.10;;;;;;;20.46;37.83;101502.63;5031166;28;20034;-83
2022/05/15 10:17:42;;;;;;;1.77;0.82;;;;;;;20.70;37.47;101497.00;5031245;28;20069;-85
2022/05/15 10:20:19;;;;;;;2.08;1.00;;;;;;;20.81;36.79;101494.25;5027496;28;20248;-85
2022/05/15 10:23:01;;;;;;;2.67;1.10;;;;;;;20.92;36.44;101499.47;5033277;28;20030;-84
2022/05/15 10:25:51;;;;;;;2.35;0.98;;;;;;;21.10;37.28;101496.97;5029777;28;20048;-83
2022/05/15 10:28:41;;;;;;;5.00;1.33;;;;;;;21.17;35.79;101486.59;5032640;28;20069;-83
2022/05/15 10:31:17;;;;;;;2.28;1.08;;;;;;;21.20;36.39;101491.66;5022304;28;20085;-86
2022/05/15 10:33:54;;;;;;;2.75;0.90;;;;;;;21.39;36.64;101486.38;5011208;28;20062;-86
2022/05/15 10:37:01;;;;;;;3.00;0.80;;;;;;;21.56;35.81;101492.84;5012482;28;20038;-85
2022/05/15 10:39:47;;;;;;;3.15;1.10;;;;;;;21.37;34.44;101488.31;4995054;28;20058;-85
2022/05/15 10:42:28;;;;;;;2.58;0.90;;;;;;;21.27;33.26;101486.59;5002978;28;20105;-86
2022/05/15 10:45:25;;;;;;;4.22;1.52;;;;;;;21.20;33.30;101476.41;5019021;28;20057;-83
2022/05/15 10:48:13;;;;;;;3.35;1.17;;;;;;;21.17;34.25;101466.00;5016565;28;20068;-84
2022/05/15 10:50:45;;;;;;;2.05;0.82;;;;;;;21.24;33.09;101472.47;5020026;28;20057;-83
2022/05/15 10:57:24;;;;;;;2.55;0.90;;;;;;;21.56;33.36;101460.69;4978876;28;20047;-84
2022/05/15 11:00:12;;;;;;;2.85;0.98;;;;;;;21.81;32.72;101458.44;5017547;28;20141;-84
2022/05/15 11:03:03;;;;;;;3.13;1.02;;;;;;;22.02;32.38;101467.16;5009063;28;20042;-84
2022/05/15 11:05:33;;;;;;;1.88;0.95;;;;;;;22.17;31.82;101459.53;4980960;28;20390;-84
2022/05/15 11:08:16;;;;;;;2.63;0.90;;;;;;;;;;5018719;28;20513;-83
2022/05/15 11:10:55;;;;;;;2.65;1.08;;;;;;;22.57;31.24;101466.44;5019609;28;20041;-83
2022/05/15 11:13:30;;;;;;;1.33;0.63;;;;;;;22.55;30.46;101457.69;5016128;28;20050;-84
2022/05/15 11:16:05;;;;;;;3.20;0.90;;;;;;;22.60;30.04;101460.75;4981426;28;20053;-85
2022/05/15 11:18:45;;;;;;;3.47;0.88;;;;;;;22.35;29.72;101455.06;5018135;28;20075;-84
2022/05/15 11:21:17;;;;;;;2.28;0.70;;;;;;;22.51;30.65;101457.13;5016932;28;20050;-84
2022/05/15 11:23:53;;;;;;;9.90;1.17;;;;;;;22.83;31.06;101453.16;5013830;28;20579;-84
2022/05/15 11:26:28;;;;;;;2.17;0.68;;;;;;;23.08;31.22;101448.94;5018700;28;20044;-84
2022/05/15 11:28:56;;;;;;;;;;;;;;;23.34;31.33;101460.63;5019636;28;20081;-84
2022/05/15 11:31:33;;;;;;;1.90;0.77;;;;;;;23.63;31.05;101457.69;4996946;28;19950;-84
2022/05/15 11:34:05;;;;;;;1.25;0.68;;;;;;;23.48;29.32;101457.41;5014071;28;20320;-84
2022/05/15 11:36:39;;;;;;;3.72;1.17;;;;;;;23.13;29.01;101449.31;4998413;28;20042;-84
2022/05/15 11:39:22;;;;;;;3.95;1.20;;;;;;;22.96;29.45;101448.28;4998386;28;20056;-84
2022/05/15 11:42:08;;;;;;;2.45;0.90;;;;;;;23.05;30.17;101446.53;5012828;28;20505;-84
2022/05/15 11:44:37;;;;;;;3.20;1.35;;;;;;;23.25;30.14;101450.81;4996851;28;20056;-84
2022/05/15 11:47:14;;;;;;;4.50;1.15;;;;;;;23.48;30.20;101446.66;5014664;28;20057;-84
2022/05/15 11:50:03;;;;;;;1.70;1.02;;;;;;;23.72;30.44;101446.03;5014910;28;20129;-84
2022/05/15 11:52:37;;;;;;;3.25;0.95;;;;;;;23.96;29.47;101440.00;5015862;28;20097;-83
2022/05/15 11:55:35;;;;;;;2.70;1.13;;;;;;;23.91;28.80;101428.88;5016490;28;20065;-85
2022/05/15 11:58:23;;;;;;;1.67;1.10;;;;;;;24.03;29.00;101433.97;4998968;28;20461;-84
2022/05/15 12:01:10;;;;;;;2.35;0.90;;;;;;;24.22;29.14;101423.81;5016374;28;20084;-84
2022/05/15 12:03:43;;;;;;;3.08;1.10;;;;;;;24.42;28.63;101421.78;5017608;28;20054;-84
2022/05/15 12:06:16;;;;;;;2.22;1.30;;;;;;;24.58;29.09;101428.25;4998297;28;20046;-84